sensor_id;sensor_type;location;lat;lon;timestamp;P1;durP1;ratioP1;P2;durP2;ratioP2
47715;SDS011;33476;50.984;3.538;2023-07-24T00:02:05;2.13;;;0.40;;
47715;SDS011;33476;50.984;3.538;2023-07-24T00:04:31;3.60;;;0.47;;
47715;SDS011;33476;50.984;3.538;2023-07-24T00:06:57;0.98;;;0.40;;
47715;SDS011;33476;50.984;3.538;2023-07-24T00:09:22;0.82;;;0.28;;
47715;SDS011;33476;50.984;3.538;2023-07-24T00:11:48;1.20;;;0.32;;
47715;SDS011;33476;50.984;3.538;2023-07-24T00:14:14;1.33;;;0.20;;
47715;SDS011;33476;50.984;3.538;2023-07-24T00:16:40;1.10;;;0.32;;
47715;SDS011;33476;50.984;3.538;2023-07-24T00:19:05;0.57;;;0.25;;
47715;SDS011;33476;50.984;3.538;2023-07-24T00:21:31;1.88;;;0.30;;
47715;SDS011;33476;50.984;3.538;2023-07-24T00:23:56;1.40;;;0.30;;
47715;SDS011;33476;50.984;3.538;2023-07-24T00:26:22;0.77;;;0.30;;
47715;SDS011;33476;50.984;3.538;2023-07-24T00:28:47;0.95;;;0.35;;
47715;SDS011;33476;50.984;3.538;2023-07-24T00:31:12;0.80;;;0.32;;
47715;SDS011;33476;50.984;3.538;2023-07-24T00:33:38;0.60;;;0.30;;
47715;SDS011;33476;50.984;3.538;2023-07-24T00:36:03;1.20;;;0.43;;
47715;SDS011;33476;50.984;3.538;2023-07-24T00:38:29;0.80;;;0.40;;
47715;SDS011;33476;50.984;3.538;2023-07-24T00:40:54;0.70;;;0.30;;
47715;SDS011;33476;50.984;3.538;2023-07-24T00:43:19;0.73;;;0.30;;
47715;SDS011;33476;50.984;3.538;2023-07-24T00:45:45;2.22;;;0.40;;
47715;SDS011;33476;50.984;3.538;2023-07-24T00:48:12;2.40;;;0.40;;
47715;SDS011;33476;50.984;3.538;2023-07-24T00:50:37;1.92;;;0.40;;
47715;SDS011;33476;50.984;3.538;2023-07-24T00:53:04;1.25;;;0.35;;
47715;SDS011;33476;50.984;3.538;2023-07-24T00:55:29;1.77;;;0.43;;
47715;SDS011;33476;50.984;3.538;2023-07-24T00:57:57;2.10;;;0.50;;
47715;SDS011;33476;50.984;3.538;2023-07-24T01:00:23;1.17;;;0.40;;
47715;SDS011;33476;50.984;3.538;2023-07-24T01:02:48;0.90;;;0.40;;
47715;SDS011;33476;50.984;3.538;2023-07-24T01:05:14;0.70;;;0.40;;
47715;SDS011;33476;50.984;3.538;2023-07-24T01:07:42;1.27;;;0.40;;
47715;SDS011;33476;50.984;3.538;2023-07-24T01:10:08;0.60;;;0.38;;
47715;SDS011;33476;50.984;3.538;2023-07-24T01:12:44;2.33;;;0.60;;
47715;SDS011;33476;50.984;3.538;2023-07-24T01:18:26;0.80;;;0.40;;
47715;SDS011;33476;50.984;3.538;2023-07-24T01:20:48;1.10;;;0.50;;
47715;SDS011;33476;50.984;3.538;2023-07-24T01:26:00;0.93;;;0.50;;
47715;SDS011;33476;50.984;3.538;2023-07-24T01:28:29;1.75;;;0.50;;
47715;SDS011;33476;50.984;3.538;2023-07-24T01:30:54;1.00;;;0.45;;
47715;SDS011;33476;50.984;3.538;2023-07-24T01:33:22;1.27;;;0.47;;
47715;SDS011;33476;50.984;3.538;2023-07-24T01:35:49;1.42;;;0.50;;
47715;SDS011;33476;50.984;3.538;2023-07-24T01:38:18;1.33;;;0.47;;
47715;SDS011;33476;50.984;3.538;2023-07-24T01:40:44;1.67;;;0.50;;
47715;SDS011;33476;50.984;3.538;2023-07-24T01:43:10;1.50;;;0.70;;
47715;SDS011;33476;50.984;3.538;2023-07-24T01:45:35;0.93;;;0.50;;
47715;SDS011;33476;50.984;3.538;2023-07-24T01:48:01;3.45;;;0.60;;
47715;SDS011;33476;50.984;3.538;2023-07-24T01:50:28;1.35;;;0.60;;
47715;SDS011;33476;50.984;3.538;2023-07-24T01:52:53;1.08;;;0.50;;
47715;SDS011;33476;50.984;3.538;2023-07-24T01:55:19;2.90;;;0.77;;
47715;SDS011;33476;50.984;3.538;2023-07-24T01:57:45;1.60;;;0.77;;
47715;SDS011;33476;50.984;3.538;2023-07-24T02:00:10;0.95;;;0.52;;
47715;SDS011;33476;50.984;3.538;2023-07-24T02:02:36;2.83;;;0.90;;
47715;SDS011;33476;50.984;3.538;2023-07-24T02:05:01;2.50;;;0.70;;
47715;SDS011;33476;50.984;3.538;2023-07-24T02:07:27;1.27;;;0.70;;
47715;SDS011;33476;50.984;3.538;2023-07-24T02:09:52;1.52;;;0.88;;
47715;SDS011;33476;50.984;3.538;2023-07-24T02:12:17;1.65;;;0.60;;
47715;SDS011;33476;50.984;3.538;2023-07-24T02:14:43;1.38;;;0.93;;
47715;SDS011;33476;50.984;3.538;2023-07-24T02:17:08;1.77;;;0.90;;
47715;SDS011;33476;50.984;3.538;2023-07-24T02:19:34;3.45;;;1.05;;
47715;SDS011;33476;50.984;3.538;2023-07-24T02:21:59;2.15;;;0.80;;
47715;SDS011;33476;50.984;3.538;2023-07-24T02:24:24;1.23;;;0.57;;
47715;SDS011;33476;50.984;3.538;2023-07-24T02:26:50;1.02;;;0.50;;
47715;SDS011;33476;50.984;3.538;2023-07-24T02:29:15;1.02;;;0.63;;
47715;SDS011;33476;50.984;3.538;2023-07-24T02:31:40;1.55;;;0.68;;
47715;SDS011;33476;50.984;3.538;2023-07-24T02:34:06;1.58;;;0.75;;
47715;SDS011;33476;50.984;3.538;2023-07-24T02:36:31;1.23;;;0.70;;
47715;SDS011;33476;50.984;3.538;2023-07-24T02:38:57;1.35;;;0.70;;
47715;SDS011;33476;50.984;3.538;2023-07-24T02:41:22;1.38;;;0.70;;
47715;SDS011;33476;50.984;3.538;2023-07-24T02:43:47;1.00;;;0.63;;
47715;SDS011;33476;50.984;3.538;2023-07-24T02:46:13;2.45;;;0.60;;
47715;SDS011;33476;50.984;3.538;2023-07-24T02:48:38;1.40;;;0.75;;
47715;SDS011;33476;50.984;3.538;2023-07-24T02:51:03;2.30;;;0.60;;
47715;SDS011;33476;50.984;3.538;2023-07-24T02:53:29;1.45;;;0.80;;
47715;SDS011;33476;50.984;3.538;2023-07-24T02:55:54;2.25;;;0.77;;
47715;SDS011;33476;50.984;3.538;2023-07-24T02:58:19;1.90;;;0.75;;
47715;SDS011;33476;50.984;3.538;2023-07-24T03:00:45;2.78;;;0.80;;
47715;SDS011;33476;50.984;3.538;2023-07-24T03:03:10;1.98;;;0.80;;
47715;SDS011;33476;50.984;3.538;2023-07-24T03:05:36;1.27;;;0.50;;
47715;SDS011;33476;50.984;3.538;2023-07-24T03:08:01;0.95;;;0.57;;
47715;SDS011;33476;50.984;3.538;2023-07-24T03:10:26;6.28;;;0.75;;
47715;SDS011;33476;50.984;3.538;2023-07-24T03:12:52;1.63;;;0.73;;
47715;SDS011;33476;50.984;3.538;2023-07-24T03:15:17;1.75;;;0.57;;
47715;SDS011;33476;50.984;3.538;2023-07-24T03:17:43;1.33;;;0.80;;
47715;SDS011;33476;50.984;3.538;2023-07-24T03:20:13;1.13;;;0.68;;
47715;SDS011;33476;50.984;3.538;2023-07-24T03:22:41;1.52;;;0.82;;
47715;SDS011;33476;50.984;3.538;2023-07-24T03:25:07;1.00;;;0.70;;
47715;SDS011;33476;50.984;3.538;2023-07-24T03:27:33;1.13;;;0.70;;
47715;SDS011;33476;50.984;3.538;2023-07-24T03:29:58;2.60;;;0.70;;
47715;SDS011;33476;50.984;3.538;2023-07-24T03:32:23;1.88;;;0.73;;
47715;SDS011;33476;50.984;3.538;2023-07-24T03:34:49;1.48;;;0.70;;
47715;SDS011;33476;50.984;3.538;2023-07-24T03:37:14;4.70;;;0.70;;
47715;SDS011;33476;50.984;3.538;2023-07-24T03:39:39;1.85;;;0.60;;
47715;SDS011;33476;50.984;3.538;2023-07-24T03:42:05;1.10;;;0.85;;
47715;SDS011;33476;50.984;3.538;2023-07-24T03:44:30;2.65;;;0.88;;
47715;SDS011;33476;50.984;3.538;2023-07-24T03:46:55;1.80;;;0.98;;
47715;SDS011;33476;50.984;3.538;2023-07-24T03:49:21;1.55;;;0.80;;
47715;SDS011;33476;50.984;3.538;2023-07-24T03:51:47;2.60;;;0.90;;
47715;SDS011;33476;50.984;3.538;2023-07-24T03:54:12;1.98;;;0.70;;
47715;SDS011;33476;50.984;3.538;2023-07-24T03:56:38;1.85;;;0.90;;
47715;SDS011;33476;50.984;3.538;2023-07-24T03:59:03;1.35;;;0.88;;
47715;SDS011;33476;50.984;3.538;2023-07-24T04:01:30;1.05;;;0.70;;
47715;SDS011;33476;50.984;3.538;2023-07-24T04:03:55;1.88;;;0.90;;
47715;SDS011;33476;50.984;3.538;2023-07-24T04:06:20;2.15;;;0.75;;
47715;SDS011;33476;50.984;3.538;2023-07-24T04:08:46;1.15;;;0.68;;
47715;SDS011;33476;50.984;3.538;2023-07-24T04:11:11;1.48;;;1.20;;
47715;SDS011;33476;50.984;3.538;2023-07-24T04:13:36;2.83;;;0.75;;
47715;SDS011;33476;50.984;3.538;2023-07-24T04:16:02;2.22;;;0.65;;
47715;SDS011;33476;50.984;3.538;2023-07-24T04:18:27;3.55;;;0.93;;
47715;SDS011;33476;50.984;3.538;2023-07-24T04:20:52;1.10;;;0.75;;
47715;SDS011;33476;50.984;3.538;2023-07-24T04:23:18;2.47;;;1.00;;
47715;SDS011;33476;50.984;3.538;2023-07-24T04:25:43;2.03;;;1.00;;
47715;SDS011;33476;50.984;3.538;2023-07-24T04:28:08;1.20;;;0.90;;
47715;SDS011;33476;50.984;3.538;2023-07-24T04:30:34;1.75;;;0.77;;
47715;SDS011;33476;50.984;3.538;2023-07-24T04:32:59;1.80;;;0.80;;
47715;SDS011;33476;50.984;3.538;2023-07-24T04:35:26;1.15;;;0.70;;
47715;SDS011;33476;50.984;3.538;2023-07-24T04:37:51;2.35;;;0.88;;
47715;SDS011;33476;50.984;3.538;2023-07-24T04:40:17;1.60;;;0.93;;
47715;SDS011;33476;50.984;3.538;2023-07-24T04:42:42;2.78;;;0.98;;
47715;SDS011;33476;50.984;3.538;2023-07-24T04:45:08;3.08;;;0.90;;
47715;SDS011;33476;50.984;3.538;2023-07-24T04:47:33;1.80;;;1.00;;
47715;SDS011;33476;50.984;3.538;2023-07-24T04:49:59;2.10;;;1.08;;
47715;SDS011;33476;50.984;3.538;2023-07-24T04:52:24;1.50;;;0.95;;
47715;SDS011;33476;50.984;3.538;2023-07-24T04:54:49;2.40;;;1.10;;
47715;SDS011;33476;50.984;3.538;2023-07-24T04:57:15;1.95;;;0.88;;
47715;SDS011;33476;50.984;3.538;2023-07-24T04:59:40;2.45;;;1.27;;
47715;SDS011;33476;50.984;3.538;2023-07-24T05:02:05;1.67;;;1.05;;
47715;SDS011;33476;50.984;3.538;2023-07-24T05:04:31;1.77;;;1.13;;
47715;SDS011;33476;50.984;3.538;2023-07-24T05:06:56;2.28;;;1.20;;
47715;SDS011;33476;50.984;3.538;2023-07-24T05:09:21;2.00;;;0.93;;
47715;SDS011;33476;50.984;3.538;2023-07-24T05:11:47;1.77;;;0.90;;
47715;SDS011;33476;50.984;3.538;2023-07-24T05:14:12;4.47;;;0.98;;
47715;SDS011;33476;50.984;3.538;2023-07-24T05:16:37;1.20;;;0.90;;
47715;SDS011;33476;50.984;3.538;2023-07-24T05:19:03;3.88;;;0.90;;
47715;SDS011;33476;50.984;3.538;2023-07-24T05:21:28;2.13;;;1.10;;
47715;SDS011;33476;50.984;3.538;2023-07-24T05:23:53;1.92;;;0.88;;
47715;SDS011;33476;50.984;3.538;2023-07-24T05:26:19;1.30;;;0.70;;
47715;SDS011;33476;50.984;3.538;2023-07-24T05:28:44;2.75;;;1.20;;
47715;SDS011;33476;50.984;3.538;2023-07-24T05:31:10;2.28;;;1.13;;
47715;SDS011;33476;50.984;3.538;2023-07-24T05:33:35;4.85;;;1.05;;
47715;SDS011;33476;50.984;3.538;2023-07-24T05:36:02;2.45;;;1.38;;
47715;SDS011;33476;50.984;3.538;2023-07-24T05:38:28;3.10;;;1.33;;
47715;SDS011;33476;50.984;3.538;2023-07-24T05:40:55;2.42;;;1.17;;
47715;SDS011;33476;50.984;3.538;2023-07-24T05:43:20;1.95;;;1.23;;
47715;SDS011;33476;50.984;3.538;2023-07-24T05:45:46;2.08;;;1.42;;
47715;SDS011;33476;50.984;3.538;2023-07-24T05:48:11;1.88;;;1.20;;
47715;SDS011;33476;50.984;3.538;2023-07-24T05:50:36;2.22;;;1.35;;
47715;SDS011;33476;50.984;3.538;2023-07-24T05:53:02;5.00;;;1.35;;
47715;SDS011;33476;50.984;3.538;2023-07-24T05:55:27;2.17;;;1.58;;
47715;SDS011;33476;50.984;3.538;2023-07-24T05:57:52;1.50;;;1.08;;
47715;SDS011;33476;50.984;3.538;2023-07-24T06:00:18;3.65;;;1.50;;
47715;SDS011;33476;50.984;3.538;2023-07-24T06:02:43;3.60;;;1.23;;
47715;SDS011;33476;50.984;3.538;2023-07-24T06:05:10;2.45;;;1.30;;
47715;SDS011;33476;50.984;3.538;2023-07-24T06:07:35;3.20;;;1.40;;
47715;SDS011;33476;50.984;3.538;2023-07-24T06:10:00;4.45;;;2.33;;
47715;SDS011;33476;50.984;3.538;2023-07-24T06:12:26;2.90;;;1.50;;
47715;SDS011;33476;50.984;3.538;2023-07-24T06:14:51;4.40;;;1.65;;
47715;SDS011;33476;50.984;3.538;2023-07-24T06:17:16;2.17;;;1.55;;
47715;SDS011;33476;50.984;3.538;2023-07-24T06:19:42;2.15;;;1.60;;
47715;SDS011;33476;50.984;3.538;2023-07-24T06:22:07;3.10;;;1.67;;
47715;SDS011;33476;50.984;3.538;2023-07-24T06:24:32;6.78;;;1.83;;
47715;SDS011;33476;50.984;3.538;2023-07-24T06:26:58;3.22;;;1.67;;
47715;SDS011;33476;50.984;3.538;2023-07-24T06:29:23;2.08;;;1.83;;
47715;SDS011;33476;50.984;3.538;2023-07-24T06:31:49;2.55;;;1.90;;
47715;SDS011;33476;50.984;3.538;2023-07-24T06:34:15;3.00;;;1.88;;
47715;SDS011;33476;50.984;3.538;2023-07-24T06:36:40;4.57;;;2.03;;
47715;SDS011;33476;50.984;3.538;2023-07-24T06:39:05;2.75;;;1.67;;
47715;SDS011;33476;50.984;3.538;2023-07-24T06:41:31;2.95;;;1.73;;
47715;SDS011;33476;50.984;3.538;2023-07-24T06:43:56;2.25;;;1.52;;
47715;SDS011;33476;50.984;3.538;2023-07-24T06:46:21;2.75;;;1.42;;
47715;SDS011;33476;50.984;3.538;2023-07-24T06:48:47;2.95;;;1.60;;
47715;SDS011;33476;50.984;3.538;2023-07-24T06:51:12;1.60;;;1.38;;
47715;SDS011;33476;50.984;3.538;2023-07-24T06:53:37;2.22;;;1.30;;
47715;SDS011;33476;50.984;3.538;2023-07-24T06:56:02;6.35;;;1.75;;
47715;SDS011;33476;50.984;3.538;2023-07-24T06:58:28;1.83;;;1.25;;
47715;SDS011;33476;50.984;3.538;2023-07-24T07:00:53;3.05;;;1.30;;
47715;SDS011;33476;50.984;3.538;2023-07-24T07:03:18;1.48;;;1.20;;
47715;SDS011;33476;50.984;3.538;2023-07-24T07:05:44;3.20;;;1.25;;
47715;SDS011;33476;50.984;3.538;2023-07-24T07:08:09;2.20;;;1.33;;
47715;SDS011;33476;50.984;3.538;2023-07-24T07:10:34;1.75;;;1.02;;
47715;SDS011;33476;50.984;3.538;2023-07-24T07:13:00;3.70;;;1.50;;
47715;SDS011;33476;50.984;3.538;2023-07-24T07:15:25;2.65;;;1.67;;
47715;SDS011;33476;50.984;3.538;2023-07-24T07:17:50;1.35;;;1.20;;
47715;SDS011;33476;50.984;3.538;2023-07-24T07:20:16;3.45;;;0.90;;
47715;SDS011;33476;50.984;3.538;2023-07-24T07:22:41;1.98;;;1.00;;
47715;SDS011;33476;50.984;3.538;2023-07-24T07:25:07;2.08;;;0.80;;
47715;SDS011;33476;50.984;3.538;2023-07-24T07:27:32;1.35;;;0.60;;
47715;SDS011;33476;50.984;3.538;2023-07-24T07:29:57;1.27;;;0.88;;
47715;SDS011;33476;50.984;3.538;2023-07-24T07:32:23;3.08;;;1.02;;
47715;SDS011;33476;50.984;3.538;2023-07-24T07:34:48;2.53;;;0.65;;
47715;SDS011;33476;50.984;3.538;2023-07-24T07:37:13;1.33;;;0.82;;
47715;SDS011;33476;50.984;3.538;2023-07-24T07:39:39;2.42;;;0.70;;
47715;SDS011;33476;50.984;3.538;2023-07-24T07:42:04;2.03;;;0.98;;
47715;SDS011;33476;50.984;3.538;2023-07-24T07:44:30;2.88;;;0.82;;
47715;SDS011;33476;50.984;3.538;2023-07-24T07:46:56;0.85;;;0.68;;
47715;SDS011;33476;50.984;3.538;2023-07-24T07:49:21;2.13;;;1.10;;
47715;SDS011;33476;50.984;3.538;2023-07-24T07:51:47;2.35;;;0.80;;
47715;SDS011;33476;50.984;3.538;2023-07-24T07:54:12;1.23;;;0.73;;
47715;SDS011;33476;50.984;3.538;2023-07-24T07:56:38;1.40;;;0.98;;
47715;SDS011;33476;50.984;3.538;2023-07-24T07:59:03;1.20;;;1.00;;
47715;SDS011;33476;50.984;3.538;2023-07-24T08:01:29;1.83;;;0.95;;
47715;SDS011;33476;50.984;3.538;2023-07-24T08:03:55;2.50;;;1.27;;
47715;SDS011;33476;50.984;3.538;2023-07-24T08:06:20;3.15;;;1.10;;
47715;SDS011;33476;50.984;3.538;2023-07-24T08:08:46;2.33;;;1.17;;
47715;SDS011;33476;50.984;3.538;2023-07-24T08:11:12;2.10;;;1.25;;
47715;SDS011;33476;50.984;3.538;2023-07-24T08:13:37;2.22;;;1.35;;
47715;SDS011;33476;50.984;3.538;2023-07-24T08:16:02;2.00;;;1.23;;
47715;SDS011;33476;50.984;3.538;2023-07-24T08:18:31;1.45;;;1.27;;
47715;SDS011;33476;50.984;3.538;2023-07-24T08:20:56;2.75;;;1.30;;
47715;SDS011;33476;50.984;3.538;2023-07-24T08:23:21;1.70;;;1.48;;
47715;SDS011;33476;50.984;3.538;2023-07-24T08:25:50;4.05;;;1.50;;
47715;SDS011;33476;50.984;3.538;2023-07-24T08:28:17;3.28;;;1.45;;
47715;SDS011;33476;50.984;3.538;2023-07-24T08:30:42;2.30;;;1.30;;
47715;SDS011;33476;50.984;3.538;2023-07-24T08:33:07;2.00;;;1.13;;
47715;SDS011;33476;50.984;3.538;2023-07-24T08:35:33;6.57;;;1.70;;
47715;SDS011;33476;50.984;3.538;2023-07-24T08:37:58;2.33;;;1.23;;
47715;SDS011;33476;50.984;3.538;2023-07-24T08:40:23;2.53;;;1.13;;
47715;SDS011;33476;50.984;3.538;2023-07-24T08:42:49;3.85;;;1.33;;
47715;SDS011;33476;50.984;3.538;2023-07-24T08:45:15;3.28;;;1.05;;
47715;SDS011;33476;50.984;3.538;2023-07-24T08:47:42;2.53;;;1.13;;
47715;SDS011;33476;50.984;3.538;2023-07-24T08:50:11;1.92;;;1.30;;
47715;SDS011;33476;50.984;3.538;2023-07-24T08:52:40;2.30;;;1.48;;
47715;SDS011;33476;50.984;3.538;2023-07-24T08:55:07;6.85;;;1.20;;
47715;SDS011;33476;50.984;3.538;2023-07-24T08:57:33;3.78;;;1.20;;
47715;SDS011;33476;50.984;3.538;2023-07-24T08:59:59;2.40;;;1.10;;
47715;SDS011;33476;50.984;3.538;2023-07-24T09:02:29;1.83;;;1.23;;
47715;SDS011;33476;50.984;3.538;2023-07-24T09:04:55;2.10;;;1.38;;
47715;SDS011;33476;50.984;3.538;2023-07-24T09:07:21;4.13;;;1.10;;
47715;SDS011;33476;50.984;3.538;2023-07-24T09:09:47;4.07;;;1.27;;
47715;SDS011;33476;50.984;3.538;2023-07-24T09:12:14;3.05;;;1.33;;
47715;SDS011;33476;50.984;3.538;2023-07-24T09:14:40;2.35;;;0.82;;
47715;SDS011;33476;50.984;3.538;2023-07-24T09:17:07;1.92;;;1.00;;
47715;SDS011;33476;50.984;3.538;2023-07-24T09:19:34;2.55;;;1.27;;
47715;SDS011;33476;50.984;3.538;2023-07-24T09:22:32;2.58;;;1.00;;
47715;SDS011;33476;50.984;3.538;2023-07-24T09:24:52;1.45;;;0.60;;
47715;SDS011;33476;50.984;3.538;2023-07-24T09:27:19;0.90;;;0.57;;
47715;SDS011;33476;50.984;3.538;2023-07-24T09:29:45;3.53;;;0.70;;
47715;SDS011;33476;50.984;3.538;2023-07-24T09:32:24;4.75;;;0.60;;
47715;SDS011;33476;50.984;3.538;2023-07-24T09:34:51;1.60;;;0.70;;
47715;SDS011;33476;50.984;3.538;2023-07-24T09:37:30;2.17;;;0.50;;
47715;SDS011;33476;50.984;3.538;2023-07-24T09:39:58;1.80;;;0.80;;
47715;SDS011;33476;50.984;3.538;2023-07-24T09:42:30;1.70;;;0.60;;
47715;SDS011;33476;50.984;3.538;2023-07-24T09:44:57;4.18;;;0.57;;
47715;SDS011;33476;50.984;3.538;2023-07-24T09:47:23;1.98;;;0.70;;
47715;SDS011;33476;50.984;3.538;2023-07-24T09:49:48;2.92;;;0.63;;
47715;SDS011;33476;50.984;3.538;2023-07-24T09:52:16;2.40;;;0.70;;
47715;SDS011;33476;50.984;3.538;2023-07-24T09:54:48;2.10;;;0.70;;
47715;SDS011;33476;50.984;3.538;2023-07-24T09:57:20;1.88;;;0.80;;
47715;SDS011;33476;50.984;3.538;2023-07-24T09:59:46;1.80;;;0.73;;
47715;SDS011;33476;50.984;3.538;2023-07-24T10:02:12;2.17;;;0.68;;
47715;SDS011;33476;50.984;3.538;2023-07-24T10:04:38;4.20;;;0.80;;
47715;SDS011;33476;50.984;3.538;2023-07-24T10:07:06;3.35;;;0.90;;
47715;SDS011;33476;50.984;3.538;2023-07-24T10:09:31;2.72;;;1.20;;
47715;SDS011;33476;50.984;3.538;2023-07-24T10:11:58;2.50;;;0.98;;
47715;SDS011;33476;50.984;3.538;2023-07-24T10:14:24;3.85;;;0.95;;
47715;SDS011;33476;50.984;3.538;2023-07-24T10:16:50;2.97;;;0.90;;
47715;SDS011;33476;50.984;3.538;2023-07-24T10:19:20;3.72;;;0.98;;
47715;SDS011;33476;50.984;3.538;2023-07-24T10:21:49;2.78;;;0.82;;
47715;SDS011;33476;50.984;3.538;2023-07-24T10:24:16;4.65;;;0.70;;
47715;SDS011;33476;50.984;3.538;2023-07-24T10:26:41;1.98;;;0.70;;
47715;SDS011;33476;50.984;3.538;2023-07-24T10:29:08;1.80;;;0.60;;
47715;SDS011;33476;50.984;3.538;2023-07-24T10:31:35;1.40;;;0.65;;
47715;SDS011;33476;50.984;3.538;2023-07-24T10:34:07;3.58;;;0.70;;
47715;SDS011;33476;50.984;3.538;2023-07-24T10:36:33;3.67;;;0.93;;
47715;SDS011;33476;50.984;3.538;2023-07-24T10:39:00;2.50;;;1.05;;
47715;SDS011;33476;50.984;3.538;2023-07-24T10:41:36;2.58;;;0.98;;
47715;SDS011;33476;50.984;3.538;2023-07-24T10:44:02;4.15;;;1.50;;
47715;SDS011;33476;50.984;3.538;2023-07-24T10:46:38;2.28;;;0.90;;
47715;SDS011;33476;50.984;3.538;2023-07-24T10:49:05;2.58;;;1.20;;
47715;SDS011;33476;50.984;3.538;2023-07-24T10:51:32;2.92;;;1.20;;
47715;SDS011;33476;50.984;3.538;2023-07-24T10:53:59;5.20;;;1.67;;
47715;SDS011;33476;50.984;3.538;2023-07-24T10:56:24;3.35;;;1.25;;
47715;SDS011;33476;50.984;3.538;2023-07-24T10:58:49;2.80;;;1.35;;
47715;SDS011;33476;50.984;3.538;2023-07-24T11:01:15;5.13;;;1.65;;
47715;SDS011;33476;50.984;3.538;2023-07-24T11:03:42;4.00;;;1.08;;
47715;SDS011;33476;50.984;3.538;2023-07-24T11:06:15;2.92;;;1.15;;
47715;SDS011;33476;50.984;3.538;2023-07-24T11:08:41;3.20;;;1.30;;
47715;SDS011;33476;50.984;3.538;2023-07-24T11:11:07;3.83;;;1.45;;
47715;SDS011;33476;50.984;3.538;2023-07-24T11:13:33;5.57;;;1.38;;
47715;SDS011;33476;50.984;3.538;2023-07-24T11:16:03;5.45;;;1.38;;
47715;SDS011;33476;50.984;3.538;2023-07-24T11:18:30;1.92;;;1.40;;
47715;SDS011;33476;50.984;3.538;2023-07-24T11:20:56;7.30;;;1.48;;
47715;SDS011;33476;50.984;3.538;2023-07-24T11:23:21;4.82;;;1.80;;
47715;SDS011;33476;50.984;3.538;2023-07-24T11:25:51;6.10;;;1.50;;
47715;SDS011;33476;50.984;3.538;2023-07-24T11:30:44;2.80;;;1.30;;
47715;SDS011;33476;50.984;3.538;2023-07-24T11:33:10;2.47;;;1.38;;
47715;SDS011;33476;50.984;3.538;2023-07-24T11:35:37;1.98;;;1.27;;
47715;SDS011;33476;50.984;3.538;2023-07-24T11:38:05;5.30;;;1.52;;
47715;SDS011;33476;50.984;3.538;2023-07-24T11:40:32;4.00;;;1.38;;
47715;SDS011;33476;50.984;3.538;2023-07-24T11:43:03;3.75;;;1.40;;
47715;SDS011;33476;50.984;3.538;2023-07-24T11:45:29;2.97;;;1.63;;
47715;SDS011;33476;50.984;3.538;2023-07-24T11:47:55;3.63;;;1.30;;
47715;SDS011;33476;50.984;3.538;2023-07-24T11:50:21;3.92;;;0.95;;
47715;SDS011;33476;50.984;3.538;2023-07-24T11:52:48;2.92;;;1.00;;
47715;SDS011;33476;50.984;3.538;2023-07-24T11:55:19;3.28;;;1.30;;
47715;SDS011;33476;50.984;3.538;2023-07-24T11:57:58;1.85;;;0.90;;
47715;SDS011;33476;50.984;3.538;2023-07-24T12:00:25;2.13;;;1.50;;
47715;SDS011;33476;50.984;3.538;2023-07-24T12:02:51;5.07;;;1.60;;
47715;SDS011;33476;50.984;3.538;2023-07-24T12:05:17;3.45;;;1.02;;
47715;SDS011;33476;50.984;3.538;2023-07-24T12:07:43;2.72;;;1.05;;
47715;SDS011;33476;50.984;3.538;2023-07-24T12:10:10;2.75;;;1.20;;
47715;SDS011;33476;50.984;3.538;2023-07-24T12:12:44;2.22;;;1.05;;
47715;SDS011;33476;50.984;3.538;2023-07-24T12:15:11;3.50;;;1.17;;
47715;SDS011;33476;50.984;3.538;2023-07-24T12:17:37;2.47;;;0.98;;
47715;SDS011;33476;50.984;3.538;2023-07-24T12:20:04;2.00;;;1.27;;
47715;SDS011;33476;50.984;3.538;2023-07-24T12:22:34;3.88;;;1.05;;
47715;SDS011;33476;50.984;3.538;2023-07-24T12:25:01;1.80;;;1.00;;
47715;SDS011;33476;50.984;3.538;2023-07-24T12:27:27;3.53;;;1.27;;
47715;SDS011;33476;50.984;3.538;2023-07-24T12:29:52;2.60;;;0.95;;
47715;SDS011;33476;50.984;3.538;2023-07-24T12:32:17;1.50;;;0.47;;
47715;SDS011;33476;50.984;3.538;2023-07-24T12:34:43;4.40;;;0.65;;
47715;SDS011;33476;50.984;3.538;2023-07-24T12:37:11;1.13;;;0.50;;
47715;SDS011;33476;50.984;3.538;2023-07-24T12:39:37;0.82;;;0.50;;
47715;SDS011;33476;50.984;3.538;2023-07-24T12:42:02;3.10;;;0.50;;
47715;SDS011;33476;50.984;3.538;2023-07-24T12:44:28;1.40;;;0.60;;
47715;SDS011;33476;50.984;3.538;2023-07-24T12:46:53;2.45;;;0.77;;
47715;SDS011;33476;50.984;3.538;2023-07-24T12:49:18;2.72;;;0.65;;
47715;SDS011;33476;50.984;3.538;2023-07-24T12:51:44;3.92;;;0.68;;
47715;SDS011;33476;50.984;3.538;2023-07-24T12:54:09;1.30;;;0.65;;
47715;SDS011;33476;50.984;3.538;2023-07-24T12:56:34;2.15;;;0.65;;
47715;SDS011;33476;50.984;3.538;2023-07-24T12:59:01;2.10;;;0.65;;
47715;SDS011;33476;50.984;3.538;2023-07-24T13:01:26;2.55;;;0.70;;
47715;SDS011;33476;50.984;3.538;2023-07-24T13:03:53;3.35;;;1.10;;
47715;SDS011;33476;50.984;3.538;2023-07-24T13:06:19;2.50;;;0.70;;
47715;SDS011;33476;50.984;3.538;2023-07-24T13:08:45;4.20;;;0.88;;
47715;SDS011;33476;50.984;3.538;2023-07-24T13:11:10;2.45;;;0.80;;
47715;SDS011;33476;50.984;3.538;2023-07-24T13:13:35;6.10;;;0.77;;
47715;SDS011;33476;50.984;3.538;2023-07-24T13:16:01;13.85;;;2.28;;
47715;SDS011;33476;50.984;3.538;2023-07-24T13:18:27;5.90;;;1.13;;
47715;SDS011;33476;50.984;3.538;2023-07-24T13:20:54;4.07;;;1.30;;
47715;SDS011;33476;50.984;3.538;2023-07-24T13:23:19;5.43;;;1.42;;
47715;SDS011;33476;50.984;3.538;2023-07-24T13:25:45;3.17;;;1.30;;
47715;SDS011;33476;50.984;3.538;2023-07-24T13:28:10;11.15;;;2.65;;
47715;SDS011;33476;50.984;3.538;2023-07-24T13:30:36;9.13;;;2.58;;
47715;SDS011;33476;50.984;3.538;2023-07-24T13:33:01;7.00;;;2.60;;
47715;SDS011;33476;50.984;3.538;2023-07-24T13:35:27;4.88;;;1.77;;
47715;SDS011;33476;50.984;3.538;2023-07-24T13:37:52;7.15;;;2.17;;
47715;SDS011;33476;50.984;3.538;2023-07-24T13:40:17;5.53;;;2.40;;
47715;SDS011;33476;50.984;3.538;2023-07-24T13:42:43;2.90;;;1.88;;
47715;SDS011;33476;50.984;3.538;2023-07-24T13:45:08;3.97;;;2.53;;
47715;SDS011;33476;50.984;3.538;2023-07-24T13:47:34;5.88;;;2.53;;
47715;SDS011;33476;50.984;3.538;2023-07-24T13:49:59;8.25;;;2.60;;
47715;SDS011;33476;50.984;3.538;2023-07-24T13:52:28;7.32;;;2.90;;
47715;SDS011;33476;50.984;3.538;2023-07-24T13:54:54;2.50;;;2.00;;
47715;SDS011;33476;50.984;3.538;2023-07-24T13:57:19;5.25;;;2.58;;
47715;SDS011;33476;50.984;3.538;2023-07-24T13:59:44;6.65;;;3.38;;
47715;SDS011;33476;50.984;3.538;2023-07-24T14:02:10;7.45;;;2.90;;
47715;SDS011;33476;50.984;3.538;2023-07-24T14:04:37;6.95;;;1.90;;
47715;SDS011;33476;50.984;3.538;2023-07-24T14:07:03;1.75;;;1.05;;
47715;SDS011;33476;50.984;3.538;2023-07-24T14:09:28;2.22;;;1.05;;
47715;SDS011;33476;50.984;3.538;2023-07-24T14:11:55;2.72;;;0.60;;
47715;SDS011;33476;50.984;3.538;2023-07-24T14:14:21;1.65;;;0.40;;
47715;SDS011;33476;50.984;3.538;2023-07-24T14:16:48;3.08;;;0.88;;
47715;SDS011;33476;50.984;3.538;2023-07-24T14:19:14;2.92;;;0.80;;
47715;SDS011;33476;50.984;3.538;2023-07-24T14:21:40;1.83;;;0.50;;
47715;SDS011;33476;50.984;3.538;2023-07-24T14:24:05;3.05;;;0.70;;
47715;SDS011;33476;50.984;3.538;2023-07-24T14:26:30;3.00;;;0.52;;
47715;SDS011;33476;50.984;3.538;2023-07-24T14:28:56;1.15;;;0.60;;
47715;SDS011;33476;50.984;3.538;2023-07-24T14:31:22;3.08;;;0.90;;
47715;SDS011;33476;50.984;3.538;2023-07-24T14:33:48;2.97;;;0.60;;
47715;SDS011;33476;50.984;3.538;2023-07-24T14:36:14;2.88;;;0.60;;
47715;SDS011;33476;50.984;3.538;2023-07-24T14:38:39;5.55;;;1.08;;
47715;SDS011;33476;50.984;3.538;2023-07-24T14:41:05;4.57;;;1.20;;
47715;SDS011;33476;50.984;3.538;2023-07-24T14:43:30;3.55;;;0.80;;
47715;SDS011;33476;50.984;3.538;2023-07-24T14:45:55;3.05;;;0.70;;
47715;SDS011;33476;50.984;3.538;2023-07-24T14:48:21;3.53;;;0.98;;
47715;SDS011;33476;50.984;3.538;2023-07-24T14:50:46;5.53;;;1.50;;